Time;durP1;ratioP1;P1;durP2;ratioP2;P2;SDS_P1;SDS_P2;PMS_P1;PMS_P2;Temp;Humidity;BMP_temperature;BMP_pressure;BME280_temperature;BME280_humidity;BME280_pressure;Samples;Min_cycle;Max_cycle;Signal;HPM_P1;HPM_P2
2021/03/29 00:02:16;;;;;;;7.93;4.07;;;;;;;;;;6290288;28;20136;-77
2021/03/29 00:05:18;;;;;;;11.10;4.50;;;;;;;;;;6287698;28;20111;-77
2021/03/29 00:08:22;;;;;;;8.00;4.28;;;;;;;;;;6290351;28;20132;-77
2021/03/29 00:11:23;;;;;;;;;;;;;;;;;;6296602;28;20087;-77
2021/03/29 00:14:25;;;;;;;8.75;4.80;;;;;;;;;;6288838;28;19951;-77
2021/03/29 00:17:26;;;;;;;8.70;4.55;;;;;;;;;;6294145;28;20196;-77
2021/03/29 00:20:29;;;;;;;7.45;5.22;;;;;;;;;;6287909;28;20135;-77
2021/03/29 00:23:31;;;;;;;8.52;5.03;;;;;;;;;;6288101;28;20135;-77
2021/03/29 00:26:32;;;;;;;9.70;5.03;;;;;;;;;;6289776;28;20071;-77
2021/03/29 00:29:34;;;;;;;9.20;5.30;;;;;;;;;;6289935;28;20051;-76
2021/03/29 00:32:36;;;;;;;10.05;5.35;;;;;;;;;;6291937;28;20060;-77
2021/03/29 00:35:38;;;;;;;11.40;5.68;;;;;;;;;;6296508;28;20531;-77
2021/03/29 00:38:41;;;;;;;7.13;5.53;;;;;;;;;;6293780;28;20118;-77
2021/03/29 00:41:43;;;;;;;9.90;6.10;;;;;;;;;;6289975;28;20072;-76
2021/03/29 00:44:45;;;;;;;7.82;6.22;;;;;;;;;;6287185;28;20139;-76
2021/03/29 00:47:47;;;;;;;11.18;7.03;;;;;;;;;;6286123;28;20045;-76
2021/03/29 00:50:51;;;;;;;7.78;6.07;;;;;;;;;;6288901;28;20155;-76
2021/03/29 00:53:53;;;;;;;10.98;6.93;;;;;;;;;;6287974;28;20056;-76
2021/03/29 00:56:55;;;;;;;10.63;6.82;;;;;;;;;;6282565;28;20065;-77
2021/03/29 00:59:57;;;;;;;10.20;7.00;;;;;;;;;;6290299;28;20041;-77
2021/03/29 01:06:10;;;;;;;11.27;7.63;;;;;;;;;;6225257;22;20056;-77
2021/03/29 01:09:15;;;;;;;12.63;7.85;;;;;;;;;;6243777;28;20041;-77
2021/03/29 01:12:16;;;;;;;11.85;6.90;;;;;;;;;;6257426;28;20067;-77
2021/03/29 01:15:21;;;;;;;13.27;7.13;;;;;;;;;;6246704;28;20150;-77
2021/03/29 01:18:22;;;;;;;8.35;6.97;;;;;;;;;;6248045;28;20123;-77
2021/03/29 01:21:40;;;;;;;8.95;6.65;;;;;;;;;;6254200;28;20507;-77
2021/03/29 01:24:48;;;;;;;9.73;6.47;;;;;;;;;;6242752;28;20057;-77
2021/03/29 01:27:54;;;;;;;9.80;6.57;;;;;;;;;;6244412;28;20457;-77
2021/03/29 01:30:55;;;;;;;14.07;7.07;;;;;;;;;;6239433;28;20129;-77
2021/03/29 01:33:56;;;;;;;11.30;6.85;;;;;;;;;;6241713;28;20072;-77
2021/03/29 01:36:58;;;;;;;12.05;6.88;;;;;;;;;;6241734;28;20080;-77
2021/03/29 01:39:59;;;;;;;8.25;7.07;;;;;;;;;;6229410;28;20522;-77
2021/03/29 01:43:01;;;;;;;10.25;6.38;;;;;;;;;;6239777;28;20074;-77
2021/03/29 01:46:03;;;;;;;11.98;7.25;;;;;;;;;;6240136;28;20057;-77
2021/03/29 01:49:04;;;;;;;12.45;7.20;;;;;;;;;;6247371;28;20448;-77
2021/03/29 01:52:06;;;;;;;8.63;6.47;;;;;;;;;;6240784;28;20149;-77
2021/03/29 01:55:08;;;;;;;11.77;7.13;;;;;;;;;;6244856;28;20785;-77
2021/03/29 01:58:11;;;;;;;11.02;7.05;;;;;;;;;;6244307;28;20092;-78
2021/03/29 02:01:12;;;;;;;10.07;6.82;;;;;;;;;;6238445;28;20488;-77
2021/03/29 02:04:13;;;;;;;8.57;6.55;;;;;;;;;;6243611;28;20046;-77
2021/03/29 02:07:15;;;;;;;11.70;7.50;;;;;;;;;;6231433;28;20568;-77
2021/03/29 02:10:18;;;;;;;11.05;7.13;;;;;;;;;;6234708;28;20124;-77
2021/03/29 02:13:23;;;;;;;12.13;6.70;;;;;;;;;;6242567;28;20072;-77
2021/03/29 02:16:28;;;;;;;11.38;8.20;;;;;;;;;;6240878;28;20076;-77
2021/03/29 02:19:29;;;;;;;9.80;6.82;;;;;;;;;;6248034;28;20119;-77
2021/03/29 02:22:31;;;;;;;10.85;7.72;;;;;;;;;;6244104;28;20083;-77
2021/03/29 02:25:33;;;;;;;11.13;7.68;;;;;;;;;;6232512;28;20069;-77
2021/03/29 02:28:35;;;;;;;13.63;8.40;;;;;;;;;;6248122;28;20155;-77
2021/03/29 02:31:36;;;;;;;14.40;8.98;;;;;;;;;;6250980;28;20437;-77
2021/03/29 02:34:38;;;;;;;13.93;9.75;;;;;;;;;;6248349;28;20378;-77
2021/03/29 02:37:47;;;;;;;13.32;9.13;;;;;;;;;;6249531;28;20120;-77
2021/03/29 02:40:50;;;;;;;15.38;10.27;;;;;;;;;;6248981;28;20085;-77
2021/03/29 02:43:53;;;;;;;15.02;11.68;;;;;;;;;;6245242;28;20053;-77
2021/03/29 02:46:54;;;;;;;16.00;11.55;;;;;;;;;;6247405;28;20077;-77
2021/03/29 02:49:55;;;;;;;14.23;10.77;;;;;;;;;;6246099;28;20073;-77
2021/03/29 02:52:59;;;;;;;14.85;10.95;;;;;;;;;;6247332;28;20227;-77
2021/03/29 02:56:03;;;;;;;20.20;11.10;;;;;;;;;;6232575;28;20125;-77
2021/03/29 02:59:08;;;;;;;15.18;9.65;;;;;;;;;;6241349;28;20076;-77
2021/03/29 03:02:09;;;;;;;15.77;10.25;;;;;;;;;;6237270;28;20491;-77
2021/03/29 03:05:12;;;;;;;12.07;10.05;;;;;;;;;;6246721;28;20411;-77
2021/03/29 03:08:13;;;;;;;17.05;12.48;;;;;;;;;;6234879;28;20045;-78
2021/03/29 03:11:15;;;;;;;17.80;13.98;;;;;;;;;;6236680;28;20069;-77
2021/03/29 03:14:17;;;;;;;22.95;15.40;;;;;;;;;;6244839;28;20091;-77
2021/03/29 03:17:19;;;;;;;18.65;14.40;;;;;;;;;;6240692;28;20140;-77
2021/03/29 03:20:20;;;;;;;20.50;14.98;;;;;;;;;;6231381;28;20069;-77
2021/03/29 03:23:22;;;;;;;27.60;16.73;;;;;;;;;;6242840;28;20060;-77
2021/03/29 03:26:24;;;;;;;20.27;15.50;;;;;;;;;;6241086;28;20061;-77
2021/03/29 03:29:26;;;;;;;20.15;15.60;;;;;;;;;;6238413;28;20081;-77
2021/03/29 03:32:28;;;;;;;22.48;15.07;;;;;;;;;;6229642;28;20069;-77
2021/03/29 03:35:30;;;;;;;22.02;15.85;;;;;;;;;;6239961;28;20132;-77
2021/03/29 03:38:35;;;;;;;19.35;15.50;;;;;;;;;;6245263;28;20073;-77
2021/03/29 03:41:36;;;;;;;23.77;16.10;;;;;;;;;;6238981;28;20076;-77
2021/03/29 03:44:39;;;;;;;19.33;15.57;;;;;;;;;;6248638;28;20058;-78
2021/03/29 03:47:41;;;;;;;20.70;16.33;;;;;;;;;;6247436;28;20136;-77
2021/03/29 03:50:46;;;;;;;19.90;15.73;;;;;;;;;;6244599;28;20076;-77
2021/03/29 03:53:46;;;;;;;;;;;;;;;;;;6240122;28;20132;-77
2021/03/29 03:56:48;;;;;;;27.90;16.70;;;;;;;;;;6247379;28;19921;-77
2021/03/29 03:59:50;;;;;;;24.23;16.15;;;;;;;;;;6250514;28;20524;-77
2021/03/29 04:02:52;;;;;;;23.00;17.05;;;;;;;;;;6246088;28;20056;-77
2021/03/29 04:05:54;;;;;;;22.17;15.93;;;;;;;;;;6242237;28;20053;-75
2021/03/29 04:08:55;;;;;;;22.10;16.40;;;;;;;;;;6258219;28;20045;-76
2021/03/29 04:11:56;;;;;;;20.55;15.68;;;;;;;;;;6252976;28;20399;-76
2021/03/29 04:14:58;;;;;;;23.65;16.08;;;;;;;;;;6250871;28;20467;-75
2021/03/29 04:17:59;;;;;;;23.67;16.25;;;;;;;;;;6247519;28;20053;-77
2021/03/29 04:21:01;;;;;;;25.25;16.95;;;;;;;;;;6245509;28;20136;-76
2021/03/29 04:24:03;;;;;;;22.35;16.63;;;;;;;;;;6242156;28;20064;-77
2021/03/29 04:27:05;;;;;;;24.65;17.20;;;;;;;;;;6238147;28;20615;-76
2021/03/29 04:30:12;;;;;;;26.15;17.58;;;;;;;;;;6234513;28;20103;-76
2021/03/29 04:33:14;;;;;;;23.70;17.48;;;;;;;;;;6244877;28;20056;-77
2021/03/29 04:36:15;;;;;;;26.20;18.23;;;;;;;;;;6248408;28;20065;-76
2021/03/29 04:39:16;;;;;;;25.85;17.83;;;;;;;;;;6250674;28;20080;-76
2021/03/29 04:42:17;;;;;;;33.95;18.63;;;;;;;;;;6249853;28;20085;-76
2021/03/29 04:45:20;;;;;;;28.52;19.25;;;;;;;;;;6242045;28;20068;-76
2021/03/29 04:48:21;;;;;;;27.08;17.98;;;;;;;;;;6240259;28;20431;-77
2021/03/29 04:51:22;;;;;;;27.85;18.20;;;;;;;;;;6245204;28;20492;-77
2021/03/29 04:54:23;;;;;;;29.77;19.60;;;;;;;;;;6242450;28;20096;-77
2021/03/29 04:57:24;;;;;;;29.38;18.35;;;;;;;;;;6239460;28;20086;-76
2021/03/29 05:00:26;;;;;;;26.60;19.75;;;;;;;;;;6245367;28;20488;-76
2021/03/29 05:03:27;;;;;;;30.73;19.45;;;;;;;;;;6244080;28;20141;-76
2021/03/29 05:06:29;;;;;;;30.15;20.42;;;;;;;;;;6249617;28;20141;-76
2021/03/29 05:09:30;;;;;;;30.10;19.98;;;;;;;;;;6256088;28;20160;-77
2021/03/29 05:12:31;;;;;;;29.15;20.25;;;;;;;;;;6252867;28;20458;-77
2021/03/29 05:15:34;;;;;;;37.05;21.83;;;;;;;;;;6245745;28;20085;-76
2021/03/29 05:18:35;;;;;;;29.58;19.65;;;;;;;;;;6249085;28;20049;-77
2021/03/29 05:21:36;;;;;;;29.77;20.73;;;;;;;;;;6247701;28;20065;-77
2021/03/29 05:24:37;;;;;;;30.83;20.48;;;;;;;;;;6245980;28;20079;-78
2021/03/29 05:27:39;;;;;;;27.92;21.30;;;;;;;;;;6247984;28;20172;-77
2021/03/29 05:30:41;;;;;;;31.77;21.02;;;;;;;;;;6250282;28;20069;-77
2021/03/29 05:33:42;;;;;;;31.15;21.20;;;;;;;;;;6242931;28;20136;-77
2021/03/29 05:36:43;;;;;;;29.10;20.10;;;;;;;;;;6242258;28;20076;-77
2021/03/29 05:39:45;;;;;;;27.33;21.38;;;;;;;;;;6236208;28;20053;-77
2021/03/29 05:42:46;;;;;;;28.27;20.45;;;;;;;;;;6236355;28;20077;-77
2021/03/29 05:45:50;;;;;;;28.45;20.33;;;;;;;;;;6237690;28;20102;-77
2021/03/29 05:48:51;;;;;;;30.10;21.20;;;;;;;;;;6235323;28;20061;-76
2021/03/29 05:51:52;;;;;;;31.27;21.77;;;;;;;;;;6240000;28;20489;-77
2021/03/29 05:54:55;;;;;;;32.00;21.75;;;;;;;;;;6243798;28;20045;-78
2021/03/29 05:58:18;;;;;;;36.42;23.98;;;;;;;;;;6242484;28;20089;-77
2021/03/29 06:01:20;;;;;;;35.78;22.40;;;;;;;;;;6236544;28;20594;-77
2021/03/29 06:04:40;;;;;;;36.92;22.90;;;;;;;;;;6243890;28;20069;-77
2021/03/29 06:07:41;;;;;;;30.67;23.60;;;;;;;;;;6241664;28;20485;-77
2021/03/29 06:10:44;;;;;;;30.50;22.85;;;;;;;;;;6243444;28;20051;-77
2021/03/29 06:13:45;;;;;;;32.35;22.95;;;;;;;;;;6230325;28;20066;-77
2021/03/29 06:17:02;;;;;;;32.83;25.27;;;;;;;;;;6239458;28;20095;-77
2021/03/29 06:20:05;;;;;;;36.50;24.90;;;;;;;;;;6232517;28;20057;-77
2021/03/29 06:23:10;;;;;;;36.22;24.92;;;;;;;;;;6236052;28;20119;-77
2021/03/29 06:26:26;;;;;;;35.25;24.50;;;;;;;;;;6240251;28;20049;-77
2021/03/29 06:29:27;;;;;;;36.65;25.33;;;;;;;;;;6235994;28;20087;-77
2021/03/29 06:32:29;;;;;;;37.80;25.63;;;;;;;;;;6234100;28;20050;-77
2021/03/29 06:35:36;;;;;;;34.72;25.52;;;;;;;;;;6235988;28;20116;-77
2021/03/29 06:38:38;;;;;;;41.00;25.40;;;;;;;;;;6240379;28;20128;-77
2021/03/29 06:41:39;;;;;;;38.55;25.45;;;;;;;;;;6239100;28;20042;-78
2021/03/29 06:44:41;;;;;;;34.58;25.88;;;;;;;;;;6234752;28;20092;-78
2021/03/29 06:47:43;;;;;;;41.47;26.33;;;;;;;;;;6239131;28;20160;-77
2021/03/29 06:50:44;;;;;;;37.60;26.35;;;;;;;;;;6237194;28;20077;-78
2021/03/29 06:53:47;;;;;;;35.05;26.00;;;;;;;;;;6247402;28;20049;-77
2021/03/29 06:56:51;;;;;;;37.00;27.00;;;;;;;;;;6244914;28;20107;-77
2021/03/29 06:59:52;;;;;;;;;;;;;;;;;;6236276;28;20041;-78
2021/03/29 07:02:54;;;;;;;36.63;27.25;;;;;;;;;;6234437;28;20000;-78
2021/03/29 07:05:55;;;;;;;33.75;26.15;;;;;;;;;;6247340;28;20437;-79
2021/03/29 07:09:05;;;;;;;39.00;27.27;;;;;;;;;;6251382;28;20053;-78
2021/03/29 07:12:08;;;;;;;34.33;26.05;;;;;;;;;;6242455;28;20057;-79
2021/03/29 07:15:11;;;;;;;38.08;27.30;;;;;;;;;;6246605;28;20077;-78
2021/03/29 07:18:15;;;;;;;41.90;27.42;;;;;;;;;;6228728;28;20065;-78
2021/03/29 07:21:17;;;;;;;35.20;26.65;;;;;;;;;;6229304;28;20129;-77
2021/03/29 07:24:19;;;;;;;34.58;27.50;;;;;;;;;;6239074;28;20056;-78
2021/03/29 07:27:20;;;;;;;36.50;27.25;;;;;;;;;;6230078;28;20057;-77
2021/03/29 07:30:43;;;;;;;39.33;27.70;;;;;;;;;;6239941;28;20136;-77
2021/03/29 07:33:52;;;;;;;35.00;27.80;;;;;;;;;;6239388;28;20080;-78
2021/03/29 07:36:54;;;;;;;37.35;28.30;;;;;;;;;;6231625;28;20049;-78
2021/03/29 07:39:55;;;;;;;33.55;27.10;;;;;;;;;;6235997;28;20413;-78
2021/03/29 07:43:06;;;;;;;36.28;27.60;;;;;;;;;;6239080;28;20073;-78
2021/03/29 07:46:07;;;;;;;37.28;27.20;;;;;;;;;;6239502;28;20445;-78
2021/03/29 07:49:45;;;;;;;37.38;26.95;;;;;;;;;;6234923;28;20045;-78
2021/03/29 07:52:50;;;;;;;34.72;26.05;;;;;;;;;;6243529;28;20049;-78
2021/03/29 07:55:52;;;;;;;31.75;26.38;;;;;;;;;;6241987;28;20060;-78
2021/03/29 07:58:53;;;;;;;30.63;25.30;;;;;;;;;;6242265;28;20061;-78
2021/03/29 08:01:59;;;;;;;34.55;25.58;;;;;;;;;;6249227;28;20117;-78
2021/03/29 08:05:05;;;;;;;38.22;26.00;;;;;;;;;;6246275;28;20096;-77
2021/03/29 08:08:40;;;;;;;38.67;26.98;;;;;;;;;;6247366;28;20046;-78
2021/03/29 08:12:02;;;;;;;40.05;27.98;;;;;;;;;;6238879;28;20531;-78
2021/03/29 08:15:05;;;;;;;34.80;26.35;;;;;;;;;;6260158;28;20098;-78
2021/03/29 08:18:06;;;;;;;37.20;28.52;;;;;;;;;;6255240;28;20087;-78
2021/03/29 08:21:43;;;;;;;36.42;28.05;;;;;;;;;;6261793;28;20044;-77
2021/03/29 08:24:46;;;;;;;37.13;28.92;;;;;;;;;;6254753;28;20451;-77
2021/03/29 08:27:54;;;;;;;33.25;27.92;;;;;;;;;;6248240;28;20123;-77
2021/03/29 08:30:55;;;;;;;37.85;27.77;;;;;;;;;;6238150;28;20132;-77
2021/03/29 08:33:56;;;;;;;33.65;27.42;;;;;;;;;;6233708;28;20144;-78
2021/03/29 08:37:01;;;;;;;36.85;26.90;;;;;;;;;;6242790;28;20707;-77
2021/03/29 08:40:07;;;;;;;33.67;26.55;;;;;;;;;;6244430;28;20056;-77
2021/03/29 08:43:09;;;;;;;37.90;28.45;;;;;;;;;;6240542;28;20049;-78
2021/03/29 08:46:10;;;;;;;37.25;27.20;;;;;;;;;;6244671;28;20053;-78
2021/03/29 08:49:12;;;;;;;33.40;27.42;;;;;;;;;;6238174;28;20046;-78
2021/03/29 08:52:13;;;;;;;31.23;27.17;;;;;;;;;;6238700;28;20433;-78
2021/03/29 08:55:18;;;;;;;34.33;27.92;;;;;;;;;;6235196;28;20669;-77
2021/03/29 08:58:19;;;;;;;29.88;26.52;;;;;;;;;;6246887;28;20073;-78
2021/03/29 09:01:27;;;;;;;32.10;25.95;;;;;;;;;;6254369;28;20581;-78
2021/03/29 09:04:28;;;;;;;33.55;27.02;;;;;;;;;;6248759;28;20057;-77
2021/03/29 09:07:32;;;;;;;30.70;25.95;;;;;;;;;;6244363;28;20131;-77
2021/03/29 09:10:35;;;;;;;;;;;;;;;;;;6256500;28;20050;-77
2021/03/29 09:13:36;;;;;;;33.22;26.70;;;;;;;;;;6242618;28;19936;-77
2021/03/29 09:16:38;;;;;;;30.10;25.60;;;;;;;;;;6248458;28;20064;-78
2021/03/29 09:19:39;;;;;;;33.40;26.20;;;;;;;;;;6258481;28;20048;-78
2021/03/29 09:22:41;;;;;;;32.42;26.30;;;;;;;;;;6249364;28;20049;-78
2021/03/29 09:25:46;;;;;;;31.58;26.80;;;;;;;;;;6262206;28;20105;-77
2021/03/29 09:28:49;;;;;;;31.75;26.70;;;;;;;;;;6270835;28;20128;-78
2021/03/29 09:31:50;;;;;;;;;;;;;;;;;;6269408;28;20289;-77
2021/03/29 09:34:52;;;;;;;30.38;26.38;;;;;;;;;;6258452;28;19921;-78
2021/03/29 09:37:54;;;;;;;29.02;25.90;;;;;;;;;;6254213;28;20065;-78
2021/03/29 09:40:56;;;;;;;30.10;26.80;;;;;;;;;;6262388;28;20049;-78
2021/03/29 09:43:58;;;;;;;28.73;23.80;;;;;;;;;;6244019;28;20045;-78
2021/03/29 09:47:00;;;;;;;31.33;24.42;;;;;;;;;;6244587;28;20514;-78
2021/03/29 09:50:02;;;;;;;30.00;26.80;;;;;;;;;;6241070;28;20127;-78
2021/03/29 09:53:18;;;;;;;35.00;28.17;;;;;;;;;;6250473;28;20092;-77
2021/03/29 09:56:27;;;;;;;29.33;25.33;;;;;;;;;;6241245;28;20077;-78
2021/03/29 09:59:30;;;;;;;27.83;23.75;;;;;;;;;;6238861;28;20136;-78
2021/03/29 10:02:33;;;;;;;28.77;22.73;;;;;;;;;;6225160;28;20064;-78
2021/03/29 10:05:35;;;;;;;31.35;22.77;;;;;;;;;;6243421;28;20041;-78
2021/03/29 10:08:36;;;;;;;24.10;20.33;;;;;;;;;;6231231;28;20042;-78
2021/03/29 10:11:45;;;;;;;23.52;19.88;;;;;;;;;;6228124;28;20066;-78
2021/03/29 10:14:46;;;;;;;21.67;19.38;;;;;;;;;;6246497;28;20060;-78
2021/03/29 10:17:47;;;;;;;25.20;20.20;;;;;;;;;;6225829;28;20449;-76
2021/03/29 10:20:48;;;;;;;22.60;20.27;;;;;;;;;;6240924;28;20053;-78
2021/03/29 10:23:49;;;;;;;21.83;18.58;;;;;;;;;;6246927;28;20049;-77
2021/03/29 10:26:56;;;;;;;19.25;17.17;;;;;;;;;;6237315;28;20038;-73
2021/03/29 10:29:57;;;;;;;21.92;16.42;;;;;;;;;;6238008;28;20116;-78
2021/03/29 10:33:00;;;;;;;18.63;16.05;;;;;;;;;;6229943;28;20171;-78
2021/03/29 10:36:01;;;;;;;20.88;16.50;;;;;;;;;;6260836;28;20132;-78
2021/03/29 10:39:02;;;;;;;19.50;15.02;;;;;;;;;;6249782;28;20141;-77
2021/03/29 10:42:05;;;;;;;16.95;13.88;;;;;;;;;;6227382;28;20396;-78
2021/03/29 10:45:08;;;;;;;15.32;13.02;;;;;;;;;;6241281;28;20072;-77
2021/03/29 10:48:10;;;;;;;14.77;12.73;;;;;;;;;;6241408;28;20057;-77
2021/03/29 10:51:11;;;;;;;19.27;12.50;;;;;;;;;;6231449;28;20110;-77
2021/03/29 10:54:12;;;;;;;17.40;12.15;;;;;;;;;;6235967;28;20089;-77
2021/03/29 10:57:14;;;;;;;11.60;9.13;;;;;;;;;;6244826;28;20077;-77
2021/03/29 11:00:16;;;;;;;9.27;8.13;;;;;;;;;;6246659;28;20069;-78
2021/03/29 11:03:18;;;;;;;12.30;7.40;;;;;;;;;;6242364;28;20948;-77
2021/03/29 11:06:19;;;;;;;7.28;5.90;;;;;;;;;;6248779;28;20624;-77
2021/03/29 11:09:20;;;;;;;12.82;5.85;;;;;;;;;;6248950;28;20137;-78
2021/03/29 11:12:22;;;;;;;7.95;5.97;;;;;;;;;;6243981;28;20049;-78
2021/03/29 11:15:23;;;;;;;22.55;4.93;;;;;;;;;;6241294;28;20150;-78
2021/03/29 11:18:24;;;;;;;5.78;4.60;;;;;;;;;;6238175;28;20115;-78
2021/03/29 11:21:26;;;;;;;9.35;4.28;;;;;;;;;;6254488;28;20133;-77
2021/03/29 11:24:27;;;;;;;8.05;4.03;;;;;;;;;;6237183;28;20072;-76
2021/03/29 11:27:29;;;;;;;9.43;4.50;;;;;;;;;;6242565;28;20484;-78
2021/03/29 11:30:30;;;;;;;5.70;4.60;;;;;;;;;;6228828;28;20077;-78
2021/03/29 11:33:31;;;;;;;7.88;4.18;;;;;;;;;;6230751;28;20057;-76
2021/03/29 11:36:32;;;;;;;9.15;4.60;;;;;;;;;;6241709;28;20224;-76
2021/03/29 11:39:34;;;;;;;10.43;5.38;;;;;;;;;;6225511;28;20154;-76
2021/03/29 11:42:35;;;;;;;11.23;5.20;;;;;;;;;;6244267;28;20099;-76
2021/03/29 11:45:37;;;;;;;7.47;4.77;;;;;;;;;;6249301;28;20129;-76
2021/03/29 11:48:38;;;;;;;10.15;4.25;;;;;;;;;;6242457;28;20069;-76
2021/03/29 11:51:39;;;;;;;12.32;5.50;;;;;;;;;;6250217;28;20045;-78
2021/03/29 11:54:40;;;;;;;8.65;4.03;;;;;;;;;;6250928;28;20114;-77
2021/03/29 11:57:44;;;;;;;7.20;4.78;;;;;;;;;;6249785;28;20060;-77
2021/03/29 12:00:52;;;;;;;8.18;5.03;;;;;;;;;;6248966;28;20048;-76
2021/03/29 12:03:56;;;;;;;6.57;4.57;;;;;;;;;;6236069;28;20049;-77
2021/03/29 12:07:01;;;;;;;9.38;4.28;;;;;;;;;;6247013;28;20080;-77
2021/03/29 12:13:24;;;;;;;7.60;5.05;;;;;;;;;;6252090;28;20151;-79
2021/03/29 12:16:27;;;;;;;7.65;4.47;;;;;;;;;;6247498;28;20079;-77
2021/03/29 12:19:29;;;;;;;11.05;5.80;;;;;;;;;;6244832;28;20087;-78
2021/03/29 12:22:30;;;;;;;8.55;5.93;;;;;;;;;;6249178;28;20076;-76
2021/03/29 12:25:32;;;;;;;10.13;4.70;;;;;;;;;;6230670;28;20080;-76
2021/03/29 12:28:34;;;;;;;7.38;5.18;;;;;;;;;;6242420;28;20065;-77
2021/03/29 12:31:36;;;;;;;7.65;4.82;;;;;;;;;;6248389;28;20058;-76
2021/03/29 12:34:42;;;;;;;8.77;4.70;;;;;;;;;;6245266;28;20049;-76
2021/03/29 12:37:44;;;;;;;7.40;4.22;;;;;;;;;;6247201;28;20431;-76
2021/03/29 12:40:46;;;;;;;13.18;5.43;;;;;;;;;;6250584;28;20134;-77
2021/03/29 12:43:53;;;;;;;6.32;4.57;;;;;;;;;;6245891;28;20046;-77
2021/03/29 12:46:57;;;;;;;7.80;4.38;;;;;;;;;;6244062;28;20050;-77
2021/03/29 12:50:07;;;;;;;7.60;5.22;;;;;;;;;;6246309;28;20546;-78
2021/03/29 12:53:13;;;;;;;10.45;5.90;;;;;;;;;;6245716;28;20052;-77
2021/03/29 12:56:16;;;;;;;18.13;5.32;;;;;;;;;;6236285;28;20060;-77
2021/03/29 12:59:19;;;;;;;;;;;;;;;;;;6240808;28;20726;-77
2021/03/29 13:02:21;;;;;;;7.18;5.45;;;;;;;;;;6244106;28;19921;-77
2021/03/29 13:05:25;;;;;;;10.18;5.10;;;;;;;;;;6242264;28;20087;-78
2021/03/29 13:08:27;;;;;;;12.30;6.32;;;;;;;;;;6243912;28;20045;-77
2021/03/29 13:11:29;;;;;;;16.08;6.03;;;;;;;;;;6241097;28;20077;-78
2021/03/29 13:14:59;;;;;;;9.57;5.20;;;;;;;;;;6242093;28;20049;-78
2021/03/29 13:18:00;;;;;;;10.55;6.22;;;;;;;;;;6230909;28;20136;-78
2021/03/29 13:21:01;;;;;;;7.88;5.15;;;;;;;;;;6243297;28;20132;-78
2021/03/29 13:24:03;;;;;;;12.98;5.88;;;;;;;;;;6243313;28;20510;-77
2021/03/29 13:27:04;;;;;;;8.93;5.63;;;;;;;;;;6242265;28;20106;-77
2021/03/29 13:30:09;;;;;;;6.85;5.63;;;;;;;;;;6235489;28;20041;-77
2021/03/29 13:33:10;;;;;;;8.77;5.95;;;;;;;;;;6238795;28;20506;-78
2021/03/29 13:36:12;;;;;;;7.38;5.65;;;;;;;;;;6242543;28;20472;-78
2021/03/29 13:39:13;;;;;;;13.00;5.43;;;;;;;;;;6241191;28;20042;-78
2021/03/29 13:42:14;;;;;;;12.85;5.95;;;;;;;;;;6245492;28;20122;-77
2021/03/29 13:45:17;;;;;;;19.60;5.63;;;;;;;;;;6244438;28;20069;-77
2021/03/29 13:48:18;;;;;;;8.70;6.03;;;;;;;;;;6242487;28;20745;-77
2021/03/29 13:51:19;;;;;;;20.85;6.78;;;;;;;;;;6242896;28;20045;-78
2021/03/29 13:54:21;;;;;;;12.90;6.57;;;;;;;;;;6244995;28;20136;-78
2021/03/29 13:57:22;;;;;;;21.07;5.87;;;;;;;;;;6242338;28;20081;-77
2021/03/29 14:00:26;;;;;;;12.73;6.00;;;;;;;;;;6235245;28;20123;-77
2021/03/29 14:03:27;;;;;;;12.55;5.43;;;;;;;;;;6244066;28;20147;-77
2021/03/29 14:06:28;;;;;;;19.38;7.10;;;;;;;;;;6236822;28;20836;-77
2021/03/29 14:09:29;;;;;;;9.50;6.57;;;;;;;;;;6234200;28;20076;-77
2021/03/29 14:12:31;;;;;;;24.52;7.80;;;;;;;;;;6246332;28;20571;-77
2021/03/29 14:15:32;;;;;;;32.63;7.82;;;;;;;;;;6225822;28;20103;-77
2021/03/29 14:18:34;;;;;;;17.92;7.10;;;;;;;;;;6233261;28;20045;-77
2021/03/29 14:21:36;;;;;;;9.05;6.15;;;;;;;;;;6236018;28;20055;-78
2021/03/29 14:24:37;;;;;;;7.78;6.97;;;;;;;;;;6237862;28;20539;-79
2021/03/29 14:27:39;;;;;;;13.25;7.78;;;;;;;;;;6253253;28;20136;-78
2021/03/29 14:30:41;;;;;;;15.65;7.18;;;;;;;;;;6231590;28;20384;-78
2021/03/29 14:33:45;;;;;;;11.02;7.43;;;;;;;;;;6235606;28;20049;-77
2021/03/29 14:36:56;;;;;;;10.43;7.30;;;;;;;;;;6235160;28;20049;-78
2021/03/29 14:40:03;;;;;;;17.25;6.60;;;;;;;;;;6245686;28;20056;-78
2021/03/29 14:43:08;;;;;;;13.05;6.93;;;;;;;;;;6233264;28;20191;-77
2021/03/29 14:46:10;;;;;;;13.73;7.15;;;;;;;;;;6236400;28;20057;-77
2021/03/29 14:49:11;;;;;;;13.80;7.22;;;;;;;;;;6240598;28;20052;-77
2021/03/29 14:52:12;;;;;;;10.27;5.93;;;;;;;;;;6239478;28;20113;-77
2021/03/29 14:55:16;;;;;;;50.17;9.43;;;;;;;;;;6248471;28;20164;-78
2021/03/29 14:58:17;;;;;;;27.25;8.57;;;;;;;;;;6259860;28;20049;-77
2021/03/29 15:01:22;;;;;;;16.52;6.68;;;;;;;;;;6243044;28;20053;-77
2021/03/29 15:04:26;;;;;;;16.55;7.55;;;;;;;;;;6236346;28;20046;-78
2021/03/29 15:07:27;;;;;;;21.58;7.57;;;;;;;;;;6245202;28;20053;-77
2021/03/29 15:10:28;;;;;;;17.02;7.15;;;;;;;;;;6241313;28;20065;-77
2021/03/29 15:13:29;;;;;;;12.45;7.53;;;;;;;;;;6239968;28;20060;-77
2021/03/29 15:16:31;;;;;;;24.48;8.13;;;;;;;;;;6246027;28;20179;-77
2021/03/29 15:19:33;;;;;;;11.00;7.80;;;;;;;;;;6243260;28;20500;-78
2021/03/29 15:22:37;;;;;;;20.30;7.57;;;;;;;;;;6236768;28;20428;-77
2021/03/29 15:25:38;;;;;;;13.15;7.07;;;;;;;;;;6240724;28;20069;-79
2021/03/29 15:28:40;;;;;;;70.45;10.13;;;;;;;;;;6261238;28;20053;-78
2021/03/29 15:31:44;;;;;;;13.13;7.65;;;;;;;;;;6239055;28;20057;-79
2021/03/29 15:34:45;;;;;;;27.10;8.68;;;;;;;;;;6239965;28;20057;-78
2021/03/29 15:37:46;;;;;;;20.80;7.97;;;;;;;;;;6246607;28;20049;-78
2021/03/29 15:40:47;;;;;;;16.80;7.22;;;;;;;;;;6263320;28;20531;-78
2021/03/29 15:43:49;;;;;;;11.90;6.93;;;;;;;;;;6258728;28;20049;-79
2021/03/29 15:46:53;;;;;;;15.73;7.07;;;;;;;;;;6256444;28;20092;-78
2021/03/29 15:49:54;;;;;;;10.50;7.18;;;;;;;;;;6236637;28;20443;-77
2021/03/29 15:52:56;;;;;;;12.53;7.93;;;;;;;;;;6241759;28;20052;-78
2021/03/29 15:55:57;;;;;;;9.55;7.32;;;;;;;;;;6243585;28;20049;-78
2021/03/29 15:58:58;;;;;;;20.63;7.07;;;;;;;;;;6252390;28;20084;-78
2021/03/29 16:02:02;;;;;;;9.48;6.30;;;;;;;;;;6246808;28;20120;-78
2021/03/29 16:05:05;;;;;;;15.65;6.57;;;;;;;;;;6234190;28;20081;-78
2021/03/29 16:08:06;;;;;;;;;;;;;;;;;;6244418;28;20049;-79
2021/03/29 16:11:08;;;;;;;22.90;6.25;;;;;;;;;;6245706;28;20441;-78
2021/03/29 16:14:09;;;;;;;9.83;7.00;;;;;;;;;;6245977;28;20092;-79
2021/03/29 16:17:12;;;;;;;10.93;6.90;;;;;;;;;;6241124;28;20467;-79
2021/03/29 16:20:14;;;;;;;13.85;6.47;;;;;;;;;;6251184;28;20080;-79
2021/03/29 16:23:16;;;;;;;11.57;5.88;;;;;;;;;;6252406;28;20122;-78
2021/03/29 16:26:23;;;;;;;8.57;5.18;;;;;;;;;;6246407;28;20135;-78
2021/03/29 16:29:35;;;;;;;11.48;5.53;;;;;;;;;;6234268;28;20480;-77
2021/03/29 16:32:37;;;;;;;13.35;5.75;;;;;;;;;;6232505;28;20058;-75
2021/03/29 16:35:38;;;;;;;18.33;6.10;;;;;;;;;;6232278;28;20060;-75
2021/03/29 16:38:40;;;;;;;10.18;5.53;;;;;;;;;;6234252;28;20186;-75
2021/03/29 16:41:41;;;;;;;24.02;5.93;;;;;;;;;;6239736;28;20049;-74
2021/03/29 16:44:43;;;;;;;8.18;4.80;;;;;;;;;;6249220;28;20354;-75
2021/03/29 16:47:45;;;;;;;13.27;4.93;;;;;;;;;;6252946;28;20056;-76
2021/03/29 16:50:46;;;;;;;11.38;4.75;;;;;;;;;;6247502;28;20053;-77
2021/03/29 16:53:47;;;;;;;8.05;5.00;;;;;;;;;;6243131;28;20076;-76
2021/03/29 16:56:48;;;;;;;13.80;5.45;;;;;;;;;;6242301;28;20538;-77
2021/03/29 16:59:50;;;;;;;11.25;6.20;;;;;;;;;;6239243;28;20045;-77
2021/03/29 17:02:52;;;;;;;11.70;5.63;;;;;;;;;;6228163;28;20113;-79
2021/03/29 17:05:53;;;;;;;8.87;5.47;;;;;;;;;;6242414;28;20056;-76
2021/03/29 17:08:54;;;;;;;17.48;6.25;;;;;;;;;;6243312;28;20492;-76
2021/03/29 17:11:55;;;;;;;11.90;5.20;;;;;;;;;;6234093;28;20060;-76
2021/03/29 17:14:56;;;;;;;11.10;5.38;;;;;;;;;;6249107;28;20136;-76
2021/03/29 17:17:58;;;;;;;10.20;5.70;;;;;;;;;;6236503;28;20140;-76
2021/03/29 17:21:00;;;;;;;16.77;5.97;;;;;;;;;;6241276;28;20902;-76
2021/03/29 17:24:01;;;;;;;10.90;6.38;;;;;;;;;;6240683;28;20057;-76
2021/03/29 17:27:02;;;;;;;9.75;5.97;;;;;;;;;;6242503;28;20407;-76
2021/03/29 17:30:06;;;;;;;9.30;6.07;;;;;;;;;;6236469;28;20046;-77
2021/03/29 17:33:08;;;;;;;12.10;5.82;;;;;;;;;;6246421;28;20124;-74
2021/03/29 17:36:09;;;;;;;13.48;6.25;;;;;;;;;;6217177;28;20132;-74
2021/03/29 17:39:10;;;;;;;10.73;6.82;;;;;;;;;;6248468;28;20194;-75
2021/03/29 17:42:12;;;;;;;12.95;7.43;;;;;;;;;;6231122;28;20041;-76
2021/03/29 17:45:14;;;;;;;12.10;6.80;;;;;;;;;;6230699;28;20064;-75
2021/03/29 17:48:17;;;;;;;14.65;7.78;;;;;;;;;;6234368;28;20045;-74
2021/03/29 17:51:19;;;;;;;13.13;8.40;;;;;;;;;;6232405;28;20564;-74
2021/03/29 17:54:20;;;;;;;13.63;8.27;;;;;;;;;;6232692;28;20155;-74
2021/03/29 17:57:22;;;;;;;16.45;7.50;;;;;;;;;;6237940;28;20779;-74
2021/03/29 18:00:24;;;;;;;15.50;8.25;;;;;;;;;;6225268;28;20259;-75
2021/03/29 18:03:27;;;;;;;19.00;8.27;;;;;;;;;;6239743;28;20177;-75
2021/03/29 18:06:28;;;;;;;14.43;7.78;;;;;;;;;;6244123;28;20207;-74